الصفحة الرئيسية
METAR-TAF:

METAR-TAF

مطار :

مطار فينيكس سكاي هاربر الدولي

فينيكس, أريزونا, الولايات المتحدة

دائرة عرض: 33-26-03N, خط طول: 112-03-04W, ارتفاع: 345 متر

مراقبة الطقس الحالي

تاريخ ووقت الإصدار 30 دقيقة قبل الساعة 10:51UTC
ريح 3 عقدة من الشرق
درجة الحرارة 27°درجة مئوية
الرطوبة 23%
ضغط 1015 hPa
الرؤية: 16.1 كم
سماء صافية

METAR: KPHX 291051Z 09003KT 10SM CLR 27/04 A2997 RMK AO2 SLP129 T02670039

زمن: 04:21 (11:21 UTC)

توقعات

تاريخ ووقت الإصدار 2ساعات و 31 دقيقة قبل الساعة 08:50UTC
التوقعات صالحة من29 الساعة 09 UTC إلى 30 الساعة 12 UTC
ريح 7 عقدة من الشرق
الرؤية: 10 كم
سماء صافية
من 29 الساعة 1600 UTC
ريح 12 عقدة من الشرق تتزايد حتى 20 عقدة
الرؤية: 10 كم
سماء صافية
من 29 الساعة 2000 UTC
ريح 7 عقدة من الشرق/الجنوب الشرقي
الرؤية: 10 كم
سماء صافية
من 30 الساعة 0100 UTC
ريح 5 عقدة من الغرب/الشمال الغربي
الرؤية: 10 كم
سماء صافية
من 30 الساعة 0500 UTC
ريح 5 عقدة من الشرق
الرؤية: 10 كم
سماء صافية

TAF: KPHX 290850Z 2909/3012 09007KT P6SM SKC FM291600 10012G20KT P6SM SKC FM292000 12007KT P6SM SKC FM300100 30005KT P6SM SKC FM300500 10005KT P6SM SKC

أرصاد الطقس والتوقعات من أكثر من 4000 مطار (تقارير الطقس للمطار METAR والتنبؤ بالطقس بالمطارTAF).

المحطات المتاحة هي النقط الصفراء والحمراء على الخريطة.

حرك المؤشر فوق النقطة لمعرفة اسم المحطة.

ثم انقر لمعرفة أرصاد وتوقعات الطقس.

لتغيير الخارطة: اضغط على الأزرار الخضراء مع رمز الصليب الأسود للتكبير. على الزر الأخضر مع شرطة للتصغير، أو على الأسهم الخضراء للخرائط المجاورة.


METAR-TAF: